createdAt,value
2019-03-09T00:02:08.284Z,20.47
2019-03-09T00:04:36.631Z,13.30
2019-03-09T00:07:04.911Z,14.67
2019-03-09T00:09:33.301Z,17.57
2019-03-09T00:12:01.670Z,14.67
2019-03-09T00:14:29.975Z,14.03
2019-03-09T00:16:58.246Z,12.63
2019-03-09T00:19:26.598Z,16.50
2019-03-09T00:21:54.910Z,13.67
2019-03-09T00:24:30.691Z,18.63
2019-03-09T00:27:16.893Z,11.73
2019-03-09T00:29:50.019Z,17.07
2019-03-09T00:32:19.995Z,16.73
2019-03-09T00:34:48.378Z,15.97
2019-03-09T00:37:16.807Z,15.07
2019-03-09T00:39:45.137Z,17.63
2019-03-09T00:42:13.510Z,15.40
2019-03-09T00:44:41.835Z,15.83
2019-03-09T00:47:10.423Z,14.93
2019-03-09T00:49:38.695Z,16.10
2019-03-09T00:52:07.090Z,18.67
2019-03-09T00:54:35.416Z,16.40
2019-03-09T00:57:03.694Z,15.53
2019-03-09T00:59:31.970Z,15.47
2019-03-09T01:02:00.271Z,19.50
2019-03-09T01:04:28.525Z,13.53
2019-03-09T01:06:56.809Z,19.20
2019-03-09T01:09:25.074Z,22.13
2019-03-09T01:11:53.374Z,21.70
2019-03-09T01:14:21.672Z,15.23
2019-03-09T01:16:50.014Z,20.43
2019-03-09T01:19:18.288Z,22.37
2019-03-09T01:21:46.563Z,16.43
2019-03-09T01:24:14.863Z,20.07
2019-03-09T01:26:43.137Z,16.73
2019-03-09T01:29:11.405Z,17.73
2019-03-09T01:31:39.756Z,19.63
2019-03-09T01:34:08.013Z,21.57
2019-03-09T01:36:36.286Z,17.50
2019-03-09T01:39:05.099Z,23.77
2019-03-09T01:41:33.382Z,24.57
2019-03-09T01:44:01.702Z,25.20
2019-03-09T01:46:30.038Z,25.93
2019-03-09T01:48:58.315Z,22.73
2019-03-09T01:51:26.691Z,19.47
2019-03-09T01:53:55.030Z,22.03
2019-03-09T01:56:23.440Z,23.80
2019-03-09T01:58:51.735Z,22.27
2019-03-09T02:01:20.062Z,22.80
2019-03-09T02:03:48.329Z,20.57
2019-03-09T02:06:16.678Z,21.70
2019-03-09T02:08:44.945Z,20.87
2019-03-09T02:11:13.203Z,22.03
2019-03-09T02:13:41.529Z,22.57
2019-03-09T02:16:09.834Z,20.07
2019-03-09T02:18:38.135Z,21.67
2019-03-09T02:21:06.442Z,21.20
2019-03-09T02:23:34.791Z,20.23
2019-03-09T02:26:03.042Z,22.70
2019-03-09T02:28:31.431Z,20.70
2019-03-09T02:30:59.672Z,17.47
2019-03-09T02:33:27.927Z,18.23
2019-03-09T02:35:56.208Z,20.17
2019-03-09T02:38:32.332Z,21.00
2019-03-09T02:41:00.678Z,21.70
2019-03-09T02:43:29.031Z,21.73
2019-03-09T02:45:57.285Z,20.50
2019-03-09T02:48:25.569Z,19.77
2019-03-09T02:50:56.769Z,19.97
2019-03-09T02:53:25.884Z,22.63
2019-03-09T02:55:54.298Z,18.17
2019-03-09T02:58:22.602Z,21.07
2019-03-09T03:01:04.478Z,23.03
2019-03-09T03:03:32.891Z,22.53
2019-03-09T03:06:01.320Z,22.83
2019-03-09T03:08:29.696Z,22.73
2019-03-09T03:10:57.951Z,22.33
2019-03-09T03:13:26.305Z,26.23
2019-03-09T03:15:54.644Z,24.20
2019-03-09T03:18:22.957Z,23.63
2019-03-09T03:20:51.308Z,16.63
2019-03-09T03:23:19.599Z,26.30
2019-03-09T03:25:47.854Z,21.60
2019-03-09T03:28:16.162Z,19.87
2019-03-09T03:30:44.426Z,22.70
2019-03-09T03:33:13.019Z,23.47
2019-03-09T03:35:41.276Z,21.60
2019-03-09T03:38:09.541Z,19.50
2019-03-09T03:40:37.821Z,17.50
2019-03-09T03:43:06.086Z,20.10
2019-03-09T03:45:34.437Z,20.20
2019-03-09T03:48:02.686Z,19.90
2019-03-09T03:50:30.975Z,23.10
2019-03-09T03:52:59.296Z,19.33
2019-03-09T03:55:27.571Z,23.87
2019-03-09T03:57:55.890Z,18.80
2019-03-09T04:00:24.192Z,18.97
2019-03-09T04:02:52.523Z,18.13
2019-03-09T04:05:20.896Z,22.37
2019-03-09T04:07:49.158Z,18.60
2019-03-09T04:10:17.541Z,20.83
2019-03-09T04:12:45.829Z,21.20
2019-03-09T04:15:14.175Z,23.63
2019-03-09T04:17:42.501Z,19.93
2019-03-09T04:20:11.405Z,21.80
2019-03-09T04:22:39.799Z,24.30
2019-03-09T04:25:08.516Z,24.30
2019-03-09T04:27:36.826Z,21.07
2019-03-09T04:30:10.474Z,24.13
2019-03-09T04:32:38.766Z,23.23
2019-03-09T04:35:07.034Z,24.20
2019-03-09T04:37:35.291Z,23.97
2019-03-09T04:40:05.878Z,26.50
2019-03-09T04:42:34.122Z,24.07
2019-03-09T04:45:02.390Z,24.03
2019-03-09T04:47:30.650Z,22.60
2019-03-09T04:49:58.910Z,23.83
2019-03-09T04:52:27.174Z,23.37
2019-03-09T04:54:55.520Z,24.13
2019-03-09T04:57:23.787Z,23.63
2019-03-09T04:59:52.078Z,24.63
2019-03-09T05:02:20.355Z,24.93
2019-03-09T05:04:48.605Z,23.27
2019-03-09T05:07:20.092Z,28.70
2019-03-09T05:10:21.385Z,22.23
2019-03-09T05:12:58.889Z,23.83
2019-03-09T05:15:28.846Z,29.27
2019-03-09T05:17:57.143Z,23.53
2019-03-09T05:20:25.585Z,24.20
2019-03-09T05:22:53.848Z,23.33
2019-03-09T05:25:22.116Z,22.93
2019-03-09T05:27:50.440Z,18.93
2019-03-09T05:30:38.633Z,18.70
2019-03-09T05:33:07.060Z,21.60
2019-03-09T05:35:35.350Z,22.57
2019-03-09T05:38:03.743Z,19.57
2019-03-09T05:40:32.053Z,19.10
2019-03-09T05:43:00.375Z,17.73
2019-03-09T05:45:28.618Z,19.40
2019-03-09T05:47:56.894Z,17.90
2019-03-09T05:50:25.189Z,17.77
2019-03-09T05:53:05.459Z,16.13
2019-03-09T05:55:33.721Z,15.43
2019-03-09T05:58:01.996Z,16.17
2019-03-09T06:00:30.284Z,15.80
2019-03-09T06:02:58.632Z,19.47
2019-03-09T06:05:30.143Z,14.77
2019-03-09T06:07:58.413Z,14.63
2019-03-09T06:10:26.668Z,11.07
2019-03-09T06:12:54.935Z,11.93
2019-03-09T06:15:23.247Z,16.20
2019-03-09T06:17:51.553Z,14.30
2019-03-09T06:20:19.983Z,18.23
2019-03-09T06:22:55.630Z,14.23
2019-03-09T06:25:23.931Z,15.40
2019-03-09T06:27:52.273Z,12.57
2019-03-09T06:30:20.530Z,23.63
2019-03-09T06:33:23.288Z,17.77
2019-03-09T06:35:57.772Z,26.00
2019-03-09T06:38:50.524Z,12.70
2019-03-09T06:41:27.821Z,15.90
2019-03-09T06:43:56.114Z,19.60
2019-03-09T06:46:24.456Z,19.70
2019-03-09T06:48:52.846Z,13.10
2019-03-09T06:51:21.156Z,14.77
2019-03-09T06:53:49.512Z,11.67
2019-03-09T06:56:17.819Z,17.37
2019-03-09T06:58:46.453Z,15.87
2019-03-09T07:01:22.065Z,19.20
2019-03-09T07:03:50.344Z,12.13
2019-03-09T07:06:18.675Z,14.80
2019-03-09T07:08:46.935Z,12.57
2019-03-09T07:11:15.193Z,19.67
2019-03-09T07:13:52.502Z,19.53
2019-03-09T07:16:14.971Z,24.17
2019-03-09T07:18:43.283Z,22.83
2019-03-09T07:21:11.531Z,25.53
2019-03-09T07:23:39.813Z,16.73
2019-03-09T07:26:08.124Z,26.33
2019-03-09T07:28:36.416Z,27.97
2019-03-09T07:31:04.671Z,19.30
2019-03-09T07:33:32.954Z,31.17
2019-03-09T07:36:01.222Z,32.93
2019-03-09T07:38:29.520Z,32.33
2019-03-09T07:40:57.845Z,17.93
2019-03-09T07:43:26.153Z,28.77
2019-03-09T07:45:54.489Z,25.70
2019-03-09T07:48:22.758Z,21.73
2019-03-09T07:50:51.045Z,29.47
2019-03-09T07:53:19.358Z,29.67
2019-03-09T07:55:47.641Z,32.80
2019-03-09T07:58:15.891Z,33.33
2019-03-09T08:00:44.163Z,29.20
2019-03-09T08:03:13.460Z,32.00
2019-03-09T08:05:41.918Z,33.13
2019-03-09T08:08:10.213Z,32.23
2019-03-09T08:10:38.485Z,28.03
2019-03-09T08:13:06.862Z,34.37
2019-03-09T08:15:35.168Z,37.60
2019-03-09T08:18:04.520Z,28.17
2019-03-09T08:20:32.787Z,33.20
2019-03-09T08:23:01.086Z,27.03
2019-03-09T08:25:29.489Z,30.57
2019-03-09T08:27:57.808Z,25.43
2019-03-09T08:30:27.565Z,38.07
2019-03-09T08:32:56.118Z,36.67
2019-03-09T08:35:24.428Z,31.83
2019-03-09T08:37:52.759Z,31.57
2019-03-09T08:40:21.777Z,26.83
2019-03-09T08:42:50.117Z,36.93
2019-03-09T08:45:22.506Z,27.80
2019-03-09T08:47:52.594Z,34.67
2019-03-09T08:50:23.566Z,28.90
2019-03-09T08:52:51.862Z,37.27
2019-03-09T08:55:20.137Z,33.03
2019-03-09T08:57:48.390Z,22.47
2019-03-09T09:00:30.192Z,25.03
2019-03-09T09:02:58.951Z,21.10
2019-03-09T09:05:27.207Z,21.60
2019-03-09T09:07:55.536Z,16.97
2019-03-09T09:10:23.819Z,19.57
2019-03-09T09:12:52.171Z,17.37
2019-03-09T09:15:20.506Z,18.40
2019-03-09T09:17:48.810Z,29.53
2019-03-09T09:20:24.121Z,21.97
2019-03-09T09:22:52.406Z,25.50
2019-03-09T09:25:20.741Z,22.63
2019-03-09T09:27:49.024Z,20.47
2019-03-09T09:30:20.181Z,21.30
2019-03-09T09:32:48.496Z,24.67
2019-03-09T09:35:17.354Z,15.13
2019-03-09T09:37:45.660Z,20.93
2019-03-09T09:40:23.412Z,18.33
2019-03-09T09:42:51.781Z,26.90
2019-03-09T09:45:20.046Z,23.43
2019-03-09T09:47:48.328Z,22.53
2019-03-09T09:50:17.032Z,23.60
2019-03-09T09:52:45.375Z,16.13
2019-03-09T09:55:15.433Z,21.33
2019-03-09T09:57:43.783Z,11.77
2019-03-09T10:00:20.671Z,22.17
2019-03-09T10:02:48.982Z,25.23
2019-03-09T10:05:17.315Z,20.20
2019-03-09T10:07:45.616Z,19.10
2019-03-09T10:10:16.369Z,17.30
2019-03-09T10:12:44.625Z,21.57
2019-03-09T10:15:15.673Z,21.60
2019-03-09T10:17:43.954Z,23.87
2019-03-09T10:20:13.043Z,21.93
2019-03-09T10:22:41.321Z,24.33
2019-03-09T10:25:10.241Z,19.30
2019-03-09T10:27:38.510Z,16.60
2019-03-09T10:30:23.518Z,23.33
2019-03-09T10:32:51.808Z,19.90
2019-03-09T10:35:20.071Z,21.73
2019-03-09T10:37:49.094Z,26.73
2019-03-09T10:40:17.378Z,24.93
2019-03-09T10:42:45.710Z,24.30
2019-03-09T10:45:15.914Z,23.53
2019-03-09T10:47:44.248Z,26.80
2019-03-09T10:50:15.883Z,27.90
2019-03-09T10:52:44.129Z,21.37
2019-03-09T10:55:29.717Z,20.30
2019-03-09T10:57:57.967Z,22.60
2019-03-09T11:00:36.834Z,24.30
2019-03-09T11:03:05.106Z,22.47
2019-03-09T11:05:33.368Z,24.40
2019-03-09T11:08:03.275Z,20.93
2019-03-09T11:10:31.517Z,20.47
2019-03-09T11:12:59.776Z,33.57
2019-03-09T11:15:28.045Z,21.63
2019-03-09T11:17:56.369Z,17.17
2019-03-09T11:20:24.632Z,41.30
2019-03-09T11:22:52.921Z,23.53
2019-03-09T11:25:21.158Z,22.53
2019-03-09T11:27:49.429Z,29.27
2019-03-09T11:30:29.151Z,20.57
2019-03-09T11:32:57.524Z,18.80
2019-03-09T11:35:25.921Z,28.03
2019-03-09T11:37:56.087Z,20.33
2019-03-09T11:40:24.511Z,23.80
2019-03-09T11:42:54.441Z,29.43
2019-03-09T11:45:22.713Z,17.17
2019-03-09T11:47:50.978Z,20.50
2019-03-09T11:50:20.886Z,20.73
2019-03-09T11:52:49.157Z,21.33
2019-03-09T11:55:17.782Z,21.30
2019-03-09T11:57:47.734Z,18.93
2019-03-09T12:00:27.854Z,15.80
2019-03-09T12:02:56.106Z,20.97
2019-03-09T12:05:27.321Z,16.30
2019-03-09T12:07:55.581Z,17.97
2019-03-09T12:10:23.862Z,19.43
2019-03-09T12:12:52.126Z,20.20
2019-03-09T12:15:20.402Z,19.00
2019-03-09T12:17:50.507Z,20.87
2019-03-09T12:20:20.329Z,22.77
2019-03-09T12:22:48.609Z,21.07
2019-03-09T12:25:17.418Z,24.93
2019-03-09T12:27:45.682Z,23.73
2019-03-09T12:30:20.118Z,24.53
2019-03-09T12:32:48.461Z,26.37
2019-03-09T12:35:16.732Z,22.43
2019-03-09T12:37:45.001Z,25.63
2019-03-09T12:40:20.315Z,23.63
2019-03-09T12:42:48.586Z,29.70
2019-03-09T12:45:17.198Z,28.80
2019-03-09T12:47:45.538Z,20.47
2019-03-09T12:50:18.779Z,22.97
2019-03-09T12:52:47.072Z,21.23
2019-03-09T12:55:15.381Z,27.63
2019-03-09T12:57:43.641Z,20.33
2019-03-09T13:00:15.782Z,22.50
2019-03-09T13:02:44.142Z,21.70
2019-03-09T13:05:12.511Z,22.97
2019-03-09T13:07:40.856Z,30.70
2019-03-09T13:10:09.847Z,30.30
2019-03-09T13:12:45.958Z,22.50
2019-03-09T13:15:15.443Z,21.70
2019-03-09T13:17:44.103Z,32.70
2019-03-09T13:20:14.888Z,19.87
2019-03-09T13:22:43.307Z,26.67
2019-03-09T13:25:14.627Z,25.33
2019-03-09T13:27:42.944Z,26.73
2019-03-09T13:30:19.548Z,17.80
2019-03-09T13:32:47.848Z,24.37
2019-03-09T13:35:17.771Z,33.67
2019-03-09T13:37:46.072Z,19.50
2019-03-09T13:40:15.872Z,25.63
2019-03-09T13:42:44.225Z,26.07
2019-03-09T13:45:18.528Z,40.87
2019-03-09T13:47:46.911Z,25.47
2019-03-09T13:50:15.543Z,31.53
2019-03-09T13:52:44.014Z,24.67
2019-03-09T13:55:14.707Z,28.50
2019-03-09T13:57:42.980Z,25.57
2019-03-09T14:00:18.771Z,20.90
2019-03-09T14:02:48.370Z,19.30
2019-03-09T14:05:16.711Z,26.13
2019-03-09T14:07:45.074Z,24.83
2019-03-09T14:11:01.555Z,19.70
2019-03-09T14:12:44.931Z,30.93
2019-03-09T14:15:18.371Z,18.20
2019-03-09T14:17:57.252Z,27.43
2019-03-09T14:20:16.928Z,21.70
2019-03-09T14:22:45.802Z,23.50
2019-03-09T14:25:17.335Z,24.33
2019-03-09T14:27:45.711Z,28.83
2019-03-09T14:30:15.793Z,22.97
2019-03-09T14:32:44.129Z,21.33
2019-03-09T14:35:12.488Z,23.53
2019-03-09T14:37:40.809Z,24.63
2019-03-09T14:40:11.502Z,19.73
2019-03-09T14:42:39.807Z,26.47
2019-03-09T14:45:11.498Z,24.30
2019-03-09T14:47:39.851Z,19.27
2019-03-09T14:50:08.962Z,20.10
2019-03-09T14:52:37.363Z,24.27
2019-03-09T14:55:10.505Z,22.70
2019-03-09T14:57:38.858Z,24.27
2019-03-09T15:00:18.987Z,25.37
2019-03-09T15:02:47.229Z,20.53
2019-03-09T15:05:15.537Z,17.27
2019-03-09T15:07:44.008Z,17.30
2019-03-09T15:10:12.730Z,19.93
2019-03-09T15:12:41.022Z,14.20
2019-03-09T15:15:15.694Z,14.57
2019-03-09T15:17:44.039Z,19.33
2019-03-09T15:20:13.709Z,12.70
2019-03-09T15:22:42.060Z,15.03
2019-03-09T15:25:18.277Z,17.80
2019-03-09T15:27:46.634Z,15.77
2019-03-09T15:30:19.119Z,16.33
2019-03-09T15:32:47.466Z,18.37
2019-03-09T15:35:16.746Z,17.80
2019-03-09T15:37:45.041Z,17.60
2019-03-09T15:40:17.266Z,15.73
2019-03-09T15:42:45.693Z,18.53
2019-03-09T15:45:17.129Z,19.00
2019-03-09T15:47:45.410Z,19.13
2019-03-09T15:50:15.233Z,16.30
2019-03-09T15:52:43.714Z,18.47
2019-03-09T15:55:12.315Z,20.97
2019-03-09T15:57:40.702Z,15.90
2019-03-09T16:00:17.934Z,19.27
2019-03-09T16:02:46.265Z,13.27
2019-03-09T16:05:14.753Z,21.47
2019-03-09T16:07:43.274Z,18.67
2019-03-09T16:10:14.057Z,13.23
2019-03-09T16:12:42.407Z,17.23
2019-03-09T16:15:15.442Z,21.30
2019-03-09T16:17:43.755Z,21.47
2019-03-09T16:20:17.756Z,10.47
2019-03-09T16:22:46.067Z,18.57
2019-03-09T16:25:14.629Z,15.50
2019-03-09T16:27:42.913Z,11.80
2019-03-09T16:30:17.261Z,14.47
2019-03-09T16:32:45.586Z,19.47
2019-03-09T16:35:13.931Z,21.90
2019-03-09T16:37:42.243Z,19.53
2019-03-09T16:40:13.119Z,11.43
2019-03-09T16:42:41.448Z,17.43
2019-03-09T16:45:12.438Z,12.50
2019-03-09T16:47:40.750Z,14.30
2019-03-09T16:50:14.099Z,11.83
2019-03-09T16:52:42.610Z,11.23
2019-03-09T16:55:11.057Z,10.47
2019-03-09T16:57:39.619Z,6.73
2019-03-09T17:00:22.125Z,11.47
2019-03-09T17:02:50.546Z,8.27
2019-03-09T17:05:18.952Z,9.60
2019-03-09T17:07:47.230Z,6.67
2019-03-09T17:10:28.979Z,5.20
2019-03-09T17:12:57.383Z,12.07
2019-03-09T17:15:25.740Z,5.50
2019-03-09T17:17:54.027Z,6.23
2019-03-09T17:20:22.338Z,5.60
2019-03-09T17:22:50.734Z,3.93
2019-03-09T17:25:19.039Z,5.53
2019-03-09T17:27:47.313Z,5.73
2019-03-09T17:30:22.398Z,7.53
2019-03-09T17:32:50.706Z,10.00
2019-03-09T17:35:19.038Z,7.40
2019-03-09T17:37:47.435Z,9.70
2019-03-09T17:40:16.840Z,6.60
2019-03-09T17:42:45.288Z,6.90
2019-03-09T17:45:21.794Z,6.70
2019-03-09T17:47:50.097Z,4.57
2019-03-09T17:50:18.434Z,4.13
2019-03-09T17:52:46.819Z,7.70
2019-03-09T17:55:21.163Z,4.63
2019-03-09T17:57:49.473Z,2.83
2019-03-09T18:00:20.367Z,3.00
2019-03-09T18:02:48.754Z,1.77
2019-03-09T18:05:19.438Z,4.73
2019-03-09T18:07:51.954Z,4.73
2019-03-09T18:10:27.722Z,4.87
2019-03-09T18:12:56.089Z,2.97
2019-03-09T18:15:26.105Z,4.73
2019-03-09T18:18:08.571Z,6.40
2019-03-09T18:20:43.352Z,2.23
2019-03-09T18:23:13.028Z,3.00
2019-03-09T18:25:43.886Z,1.73
2019-03-09T18:28:14.480Z,2.53
2019-03-09T18:30:47.576Z,3.37
2019-03-09T18:33:19.835Z,4.77
2019-03-09T18:35:55.908Z,2.63
2019-03-09T18:38:26.998Z,2.03
2019-03-09T18:41:04.079Z,3.20
2019-03-09T18:43:32.364Z,4.67
2019-03-09T18:46:05.170Z,5.23
2019-03-09T18:48:33.565Z,4.00
2019-03-09T18:51:03.563Z,4.70
2019-03-09T18:53:39.726Z,3.03
2019-03-09T18:56:09.951Z,4.63
2019-03-09T18:58:40.064Z,4.47
2019-03-09T19:01:08.394Z,5.57
2019-03-09T19:03:38.419Z,4.27
2019-03-09T19:06:06.708Z,4.47
2019-03-09T19:08:38.013Z,4.33
2019-03-09T19:11:07.937Z,3.50
2019-03-09T19:13:38.962Z,6.87
2019-03-09T19:16:09.025Z,5.77
2019-03-09T19:18:39.039Z,6.83
2019-03-09T19:21:09.348Z,8.70
2019-03-09T19:23:40.743Z,7.63
2019-03-09T19:26:09.149Z,6.43
2019-03-09T19:28:37.419Z,5.90
2019-03-09T19:31:05.794Z,10.93
2019-03-09T19:33:34.239Z,8.40
2019-03-09T19:36:02.610Z,8.30
2019-03-09T19:38:30.968Z,12.07
2019-03-09T19:40:59.312Z,6.77
2019-03-09T19:43:27.638Z,8.83
2019-03-09T19:45:55.909Z,5.60
2019-03-09T19:48:24.191Z,8.77
2019-03-09T19:50:52.518Z,8.90
2019-03-09T19:53:20.808Z,7.23
2019-03-09T19:55:49.160Z,8.17
2019-03-09T19:58:17.513Z,19.63
2019-03-09T20:00:45.798Z,10.00
2019-03-09T20:03:14.162Z,11.80
2019-03-09T20:05:42.627Z,8.37
2019-03-09T20:08:10.912Z,7.23
2019-03-09T20:10:39.195Z,9.20
2019-03-09T20:13:07.450Z,3.00
2019-03-09T20:15:35.822Z,4.57
2019-03-09T20:18:04.128Z,5.67
2019-03-09T20:20:32.546Z,5.83
2019-03-09T20:23:00.880Z,4.17
2019-03-09T20:25:29.315Z,8.20
2019-03-09T20:27:57.662Z,5.47
2019-03-09T20:30:25.924Z,9.70
2019-03-09T20:32:54.177Z,10.17
2019-03-09T20:35:22.498Z,4.47
2019-03-09T20:37:50.817Z,8.00
2019-03-09T20:40:19.136Z,6.37
2019-03-09T20:42:47.399Z,7.93
2019-03-09T20:45:16.634Z,11.83
2019-03-09T20:47:44.973Z,15.43
2019-03-09T20:50:21.695Z,16.37
2019-03-09T20:52:50.045Z,15.93
2019-03-09T20:55:18.414Z,15.40
2019-03-09T20:57:46.706Z,14.33
2019-03-09T21:00:21.685Z,14.27
2019-03-09T21:02:50.014Z,19.07
2019-03-09T21:05:18.345Z,12.07
2019-03-09T21:07:46.655Z,21.20
2019-03-09T21:10:19.728Z,15.63
2019-03-09T21:12:55.997Z,13.23
2019-03-09T21:15:24.396Z,14.90
2019-03-09T21:17:52.793Z,14.57
2019-03-09T21:20:21.116Z,13.53
2019-03-09T21:22:49.397Z,10.20
2019-03-09T21:25:17.833Z,13.57
2019-03-09T21:27:46.332Z,5.87
2019-03-09T21:30:14.965Z,12.93
2019-03-09T21:32:43.311Z,16.60
2019-03-09T21:35:11.655Z,9.10
2019-03-09T21:37:39.964Z,10.70
2019-03-09T21:40:08.311Z,6.40
2019-03-09T21:42:36.704Z,10.20
2019-03-09T21:45:13.378Z,7.13
2019-03-09T21:47:46.631Z,8.17
2019-03-09T21:50:18.011Z,6.17
2019-03-09T21:52:46.449Z,9.17
2019-03-09T21:55:18.133Z,7.57
2019-03-09T21:57:46.624Z,7.30
2019-03-09T22:00:19.815Z,13.40
2019-03-09T22:02:50.196Z,17.63
2019-03-09T22:05:18.106Z,8.37
2019-03-09T22:07:46.393Z,9.53
2019-03-09T22:10:14.645Z,13.97
2019-03-09T22:12:42.945Z,15.60
2019-03-09T22:15:15.118Z,18.23
2019-03-09T22:17:43.438Z,15.00
2019-03-09T22:20:12.889Z,14.77
2019-03-09T22:22:41.198Z,18.93
2019-03-09T22:25:11.581Z,18.30
2019-03-09T22:27:40.091Z,16.40
2019-03-09T22:30:11.442Z,14.13
2019-03-09T22:32:39.818Z,18.83
2019-03-09T22:35:10.941Z,13.90
2019-03-09T22:37:39.282Z,22.20
2019-03-09T22:40:10.812Z,24.10
2019-03-09T22:42:39.185Z,19.00
2019-03-09T22:45:10.320Z,18.87
2019-03-09T22:47:38.713Z,23.00
2019-03-09T22:50:15.550Z,18.40
2019-03-09T22:52:43.817Z,22.87
2019-03-09T22:55:12.113Z,23.47
2019-03-09T22:57:40.423Z,21.80
2019-03-09T23:00:11.674Z,19.57
2019-03-09T23:02:40.207Z,21.47
2019-03-09T23:05:10.293Z,16.60
2019-03-09T23:07:38.614Z,17.77
2019-03-09T23:10:15.659Z,19.83
2019-03-09T23:12:43.981Z,14.20
2019-03-09T23:15:14.762Z,25.07
2019-03-09T23:17:43.111Z,17.60
2019-03-09T23:20:13.317Z,17.53
2019-03-09T23:22:41.645Z,15.47
2019-03-09T23:25:10.756Z,24.97
2019-03-09T23:27:39.062Z,25.33
2019-03-09T23:30:23.828Z,19.30
2019-03-09T23:32:52.147Z,20.17
2019-03-09T23:35:21.108Z,22.67
2019-03-09T23:37:49.364Z,21.20
2019-03-09T23:40:19.959Z,15.00
2019-03-09T23:42:48.232Z,15.33
2019-03-09T23:45:18.254Z,23.70
2019-03-09T23:47:46.585Z,28.60
2019-03-09T23:50:16.419Z,21.00
2019-03-09T23:52:45.029Z,19.10
2019-03-09T23:55:21.215Z,17.07
2019-03-09T23:57:43.557Z,20.33
